createdAt,value
2018-12-09T00:00:12.287Z,986.71
2018-12-09T00:01:12.005Z,986.64
2018-12-09T00:02:12.104Z,986.57
2018-12-09T00:03:11.999Z,986.55
2018-12-09T00:04:12.048Z,986.47
2018-12-09T00:05:11.934Z,986.45
2018-12-09T00:06:12.952Z,986.50
2018-12-09T00:07:13.040Z,986.52
2018-12-09T00:08:12.042Z,986.44
2018-12-09T00:09:11.947Z,986.40
2018-12-09T00:10:11.930Z,986.34
2018-12-09T00:11:12.483Z,986.29
2018-12-09T00:12:12.426Z,986.24
2018-12-09T00:13:11.854Z,986.22
2018-12-09T00:14:11.896Z,986.27
2018-12-09T00:15:11.918Z,986.27
2018-12-09T00:16:11.906Z,986.11
2018-12-09T00:17:11.852Z,986.06
2018-12-09T00:18:11.885Z,986.09
2018-12-09T00:19:11.914Z,986.02
2018-12-09T00:20:19.905Z,986.00
2018-12-09T00:22:22.525Z,985.91
2018-12-09T00:23:22.900Z,985.88
2018-12-09T00:27:13.319Z,985.83
2018-12-09T00:28:21.429Z,985.86
2018-12-09T00:29:21.334Z,985.74
2018-12-09T00:30:22.444Z,985.75
2018-12-09T00:31:21.802Z,985.72
2018-12-09T00:32:21.023Z,985.69
2018-12-09T00:33:24.478Z,985.60
2018-12-09T00:34:20.934Z,985.65
2018-12-09T00:35:12.860Z,985.61
2018-12-09T00:36:13.675Z,985.61
2018-12-09T00:37:12.962Z,985.43
2018-12-09T00:38:12.707Z,985.54
2018-12-09T00:39:12.714Z,985.52
2018-12-09T00:40:12.717Z,985.42
2018-12-09T00:41:12.714Z,985.45
2018-12-09T00:42:12.668Z,985.44
2018-12-09T00:43:12.689Z,985.33
2018-12-09T00:44:12.684Z,985.33
2018-12-09T00:45:12.635Z,985.30
2018-12-09T00:46:12.646Z,985.27
2018-12-09T00:47:12.657Z,985.30
2018-12-09T00:48:13.602Z,985.15
2018-12-09T00:49:14.600Z,985.21
2018-12-09T00:50:12.638Z,985.14
2018-12-09T00:51:12.596Z,985.09
2018-12-09T00:52:12.617Z,985.11
2018-12-09T00:53:12.556Z,985.14
2018-12-09T00:54:12.589Z,985.06
2018-12-09T00:55:12.534Z,985.00
2018-12-09T00:56:12.570Z,984.97
2018-12-09T00:57:12.589Z,985.08
2018-12-09T00:58:12.524Z,984.92
2018-12-09T00:59:12.557Z,984.86
2018-12-09T01:00:12.503Z,984.85
2018-12-09T01:01:12.454Z,984.82
2018-12-09T01:02:12.457Z,984.76
2018-12-09T01:03:12.462Z,984.80
2018-12-09T01:04:12.477Z,984.79
2018-12-09T01:05:12.412Z,984.76
2018-12-09T01:06:12.405Z,984.81
2018-12-09T01:07:12.455Z,984.66
2018-12-09T01:08:12.382Z,984.65
2018-12-09T01:09:12.393Z,984.54
2018-12-09T01:10:12.402Z,984.59
2018-12-09T01:11:13.008Z,984.48
2018-12-09T01:12:12.380Z,984.50
2018-12-09T01:13:12.339Z,984.38
2018-12-09T01:14:12.348Z,984.41
2018-12-09T01:15:12.309Z,984.29
2018-12-09T01:16:12.302Z,984.29
2018-12-09T01:17:12.323Z,984.31
2018-12-09T01:18:12.308Z,984.30
2018-12-09T01:19:12.288Z,984.34
2018-12-09T01:20:12.290Z,984.21
2018-12-09T01:21:12.237Z,984.23
2018-12-09T01:22:12.243Z,984.24
2018-12-09T01:23:12.253Z,984.21
2018-12-09T01:24:12.301Z,984.15
2018-12-09T01:25:12.225Z,984.10
2018-12-09T01:26:12.206Z,984.01
2018-12-09T01:27:12.184Z,984.05
2018-12-09T01:28:12.175Z,983.92
2018-12-09T01:29:12.180Z,983.92
2018-12-09T01:30:12.160Z,983.97
2018-12-09T01:31:12.158Z,983.83
2018-12-09T01:32:12.149Z,983.85
2018-12-09T01:33:12.166Z,983.84
2018-12-09T01:34:12.128Z,983.90
2018-12-09T01:35:12.115Z,983.81
2018-12-09T01:36:12.079Z,983.81
2018-12-09T01:37:12.080Z,983.83
2018-12-09T01:38:12.052Z,983.79
2018-12-09T01:39:12.060Z,983.76
2018-12-09T01:40:12.068Z,983.72
2018-12-09T01:41:20.711Z,983.61
2018-12-09T01:42:12.024Z,983.66
2018-12-09T01:43:12.050Z,983.55
2018-12-09T01:44:12.026Z,983.65
2018-12-09T01:45:12.090Z,983.62
2018-12-09T01:46:12.706Z,983.59
2018-12-09T01:47:11.993Z,983.66
2018-12-09T01:48:11.995Z,983.59
2018-12-09T01:49:11.973Z,983.48
2018-12-09T01:50:20.221Z,983.51
2018-12-09T01:51:19.058Z,983.53
2018-12-09T01:52:19.053Z,983.62
2018-12-09T01:53:19.928Z,983.45
2018-12-09T01:54:19.060Z,983.50
2018-12-09T01:55:18.966Z,983.48
2018-12-09T01:56:19.925Z,983.44
2018-12-09T01:57:19.045Z,983.26
2018-12-09T01:58:20.872Z,983.27
2018-12-09T01:59:20.004Z,983.22
2018-12-09T02:00:20.309Z,983.27
2018-12-09T02:01:19.439Z,983.36
2018-12-09T02:02:19.160Z,983.49
2018-12-09T02:03:26.605Z,983.37
2018-12-09T02:04:20.410Z,983.28
2018-12-09T02:05:20.150Z,983.28
2018-12-09T02:06:11.928Z,983.26
2018-12-09T02:07:11.860Z,983.20
2018-12-09T02:08:11.796Z,983.20
2018-12-09T02:09:11.751Z,983.17
2018-12-09T02:10:11.748Z,983.16
2018-12-09T02:11:11.710Z,983.00
2018-12-09T02:12:11.708Z,983.01
2018-12-09T02:13:11.730Z,983.05
2018-12-09T02:14:11.657Z,983.01
2018-12-09T02:15:11.753Z,982.96
2018-12-09T02:16:11.683Z,982.97
2018-12-09T02:17:11.716Z,982.87
2018-12-09T02:18:11.664Z,982.94
2018-12-09T02:19:12.476Z,982.84
2018-12-09T02:20:11.654Z,982.97
2018-12-09T02:21:11.600Z,982.88
2018-12-09T02:22:11.611Z,982.82
2018-12-09T02:23:11.604Z,982.84
2018-12-09T02:24:11.606Z,982.84
2018-12-09T02:25:11.624Z,982.82
2018-12-09T02:26:19.580Z,982.88
2018-12-09T02:27:19.817Z,982.83
2018-12-09T02:28:11.703Z,982.79
2018-12-09T02:29:11.676Z,982.80
2018-12-09T02:30:12.587Z,982.70
2018-12-09T02:31:11.523Z,982.73
2018-12-09T02:32:11.518Z,982.72
2018-12-09T02:33:11.514Z,982.72
2018-12-09T02:34:11.555Z,982.73
2018-12-09T02:35:11.543Z,982.61
2018-12-09T02:36:11.480Z,982.65
2018-12-09T02:37:11.451Z,982.60
2018-12-09T02:38:11.444Z,982.64
2018-12-09T02:39:11.402Z,982.55
2018-12-09T02:40:11.458Z,982.56
2018-12-09T02:41:11.475Z,982.50
2018-12-09T02:42:19.175Z,982.47
2018-12-09T02:43:11.453Z,982.42
2018-12-09T02:44:11.515Z,982.44
2018-12-09T02:45:11.405Z,982.47
2018-12-09T02:46:11.536Z,982.45
2018-12-09T02:47:11.354Z,982.39
2018-12-09T02:48:11.337Z,982.39
2018-12-09T02:49:11.334Z,982.29
2018-12-09T02:50:11.284Z,982.33
2018-12-09T02:51:11.271Z,982.30
2018-12-09T02:52:11.284Z,982.33
2018-12-09T02:53:11.275Z,982.29
2018-12-09T02:54:11.281Z,982.33
2018-12-09T02:55:11.299Z,982.30
2018-12-09T02:56:11.250Z,982.17
2018-12-09T02:57:20.332Z,982.19
2018-12-09T02:58:18.331Z,982.21
2018-12-09T02:59:11.237Z,982.19
2018-12-09T03:00:18.408Z,982.12
2018-12-09T03:01:20.259Z,982.09
2018-12-09T03:02:11.340Z,982.12
2018-12-09T03:03:11.212Z,982.10
2018-12-09T03:04:11.177Z,982.10
2018-12-09T03:05:11.180Z,982.09
2018-12-09T03:06:11.118Z,982.06
2018-12-09T03:07:11.160Z,982.04
2018-12-09T03:08:11.088Z,982.07
2018-12-09T03:09:11.107Z,982.07
2018-12-09T03:10:11.641Z,982.09
2018-12-09T03:11:11.082Z,982.08
2018-12-09T03:12:11.091Z,982.02
2018-12-09T03:13:11.041Z,982.03
2018-12-09T03:14:11.039Z,982.09
2018-12-09T03:15:11.099Z,981.98
2018-12-09T03:16:11.038Z,981.95
2018-12-09T03:17:11.037Z,981.89
2018-12-09T03:18:10.980Z,981.86
2018-12-09T03:19:10.982Z,981.94
2018-12-09T03:20:19.702Z,981.96
2018-12-09T03:21:19.062Z,981.90
2018-12-09T03:22:18.765Z,981.89
2018-12-09T03:23:19.382Z,981.95
2018-12-09T03:24:18.012Z,981.92
2018-12-09T03:25:11.305Z,981.94
2018-12-09T03:26:11.015Z,981.83
2018-12-09T03:27:11.073Z,981.84
2018-12-09T03:28:10.896Z,981.90
2018-12-09T03:29:10.886Z,981.87
2018-12-09T03:30:10.906Z,981.83
2018-12-09T03:31:10.858Z,981.89
2018-12-09T03:32:10.898Z,981.88
2018-12-09T03:33:10.845Z,981.84
2018-12-09T03:34:10.851Z,981.85
2018-12-09T03:35:10.849Z,981.89
2018-12-09T03:36:10.795Z,981.85
2018-12-09T03:37:10.788Z,981.86
2018-12-09T03:38:10.800Z,981.82
2018-12-09T03:39:10.792Z,981.77
2018-12-09T03:40:10.778Z,981.70
2018-12-09T03:41:10.748Z,981.79
2018-12-09T03:42:10.781Z,981.73
2018-12-09T03:43:10.742Z,981.72
2018-12-09T03:44:10.739Z,981.59
2018-12-09T03:45:10.760Z,981.71
2018-12-09T03:46:10.750Z,981.78
2018-12-09T03:47:10.696Z,981.77
2018-12-09T03:48:10.706Z,981.77
2018-12-09T03:49:11.265Z,981.71
2018-12-09T03:50:10.694Z,981.77
2018-12-09T03:51:10.660Z,981.70
2018-12-09T03:52:10.644Z,981.65
2018-12-09T03:53:10.676Z,981.73
2018-12-09T03:54:10.639Z,981.73
2018-12-09T03:55:10.652Z,981.71
2018-12-09T03:56:10.612Z,981.70
2018-12-09T03:57:10.605Z,981.71
2018-12-09T03:58:10.581Z,981.72
2018-12-09T03:59:10.578Z,981.68
2018-12-09T04:00:10.584Z,981.70
2018-12-09T04:01:10.554Z,981.65
2018-12-09T04:02:10.538Z,981.61
2018-12-09T04:03:10.529Z,981.64
2018-12-09T04:04:10.543Z,981.76
2018-12-09T04:05:10.525Z,981.71
2018-12-09T04:06:10.524Z,981.49
2018-12-09T04:07:10.472Z,981.64
2018-12-09T04:08:10.501Z,981.58
2018-12-09T04:09:10.461Z,981.64
2018-12-09T04:10:10.448Z,981.62
2018-12-09T04:11:10.491Z,981.64
2018-12-09T04:12:10.459Z,981.62
2018-12-09T04:13:10.463Z,981.67
2018-12-09T04:14:10.408Z,981.63
2018-12-09T04:15:10.405Z,981.58
2018-12-09T04:16:10.396Z,981.60
2018-12-09T04:17:10.353Z,981.62
2018-12-09T04:18:17.574Z,981.67
2018-12-09T04:19:17.538Z,981.64
2018-12-09T04:20:18.777Z,981.57
2018-12-09T04:21:10.650Z,981.55
2018-12-09T04:22:10.434Z,981.51
2018-12-09T04:23:10.354Z,981.56
2018-12-09T04:24:10.303Z,981.49
2018-12-09T04:25:10.285Z,981.53
2018-12-09T04:26:10.307Z,981.45
2018-12-09T04:27:10.299Z,981.50
2018-12-09T04:28:10.276Z,981.49
2018-12-09T04:29:10.245Z,981.46
2018-12-09T04:30:10.287Z,981.45
2018-12-09T04:31:10.259Z,981.46
2018-12-09T04:32:10.251Z,981.41
2018-12-09T04:33:10.216Z,981.41
2018-12-09T04:34:10.233Z,981.39
2018-12-09T04:35:10.190Z,981.42
2018-12-09T04:36:10.179Z,981.40
2018-12-09T04:37:10.158Z,981.41
2018-12-09T04:38:10.293Z,981.36
2018-12-09T04:39:10.166Z,981.39
2018-12-09T04:40:10.095Z,981.36
2018-12-09T04:41:10.129Z,981.38
2018-12-09T04:42:10.163Z,981.34
2018-12-09T04:43:10.150Z,981.34
2018-12-09T04:44:10.079Z,981.32
2018-12-09T04:45:10.103Z,981.26
2018-12-09T04:46:10.083Z,981.40
2018-12-09T04:47:10.101Z,981.28
2018-12-09T04:48:10.098Z,981.35
2018-12-09T04:49:10.040Z,981.33
2018-12-09T04:50:10.051Z,981.35
2018-12-09T04:51:10.873Z,981.36
2018-12-09T04:52:09.999Z,981.39
2018-12-09T04:53:09.977Z,981.45
2018-12-09T04:54:18.261Z,981.38
2018-12-09T04:55:18.171Z,981.41
2018-12-09T04:56:10.073Z,981.34
2018-12-09T04:57:10.057Z,981.43
2018-12-09T04:58:09.986Z,981.30
2018-12-09T04:59:10.044Z,981.29
2018-12-09T05:00:09.993Z,981.40
2018-12-09T05:01:09.922Z,981.37
2018-12-09T05:02:09.926Z,981.46
2018-12-09T05:03:09.929Z,981.39
2018-12-09T05:04:09.920Z,981.40
2018-12-09T05:05:09.846Z,981.35
2018-12-09T05:06:09.886Z,981.34
2018-12-09T05:07:09.852Z,981.43
2018-12-09T05:08:09.836Z,981.39
2018-12-09T05:09:09.847Z,981.41
2018-12-09T05:10:09.833Z,981.36
2018-12-09T05:11:09.870Z,981.47
2018-12-09T05:12:09.810Z,981.43
2018-12-09T05:13:09.807Z,981.45
2018-12-09T05:14:09.792Z,981.33
2018-12-09T05:15:09.767Z,981.45
2018-12-09T05:16:09.921Z,981.38
2018-12-09T05:17:09.723Z,981.37
2018-12-09T05:18:09.752Z,981.49
2018-12-09T05:19:09.726Z,981.47
2018-12-09T05:20:09.717Z,981.47
2018-12-09T05:21:09.776Z,981.40
2018-12-09T05:22:10.456Z,981.39
2018-12-09T05:23:09.658Z,981.51
2018-12-09T05:24:09.694Z,981.42
2018-12-09T05:25:09.649Z,981.47
2018-12-09T05:26:09.662Z,981.49
2018-12-09T05:27:09.660Z,981.54
2018-12-09T05:28:09.629Z,981.51
2018-12-09T05:29:09.614Z,981.51
2018-12-09T05:30:09.601Z,981.49
2018-12-09T05:31:09.621Z,981.60
2018-12-09T05:32:09.609Z,981.59
2018-12-09T05:33:09.560Z,981.53
2018-12-09T05:34:09.562Z,981.64
2018-12-09T05:35:09.541Z,981.60
2018-12-09T05:36:09.579Z,981.49
2018-12-09T05:37:16.773Z,981.58
2018-12-09T05:38:09.789Z,981.69
2018-12-09T05:39:09.843Z,981.68
2018-12-09T05:40:09.652Z,981.72
2018-12-09T05:41:09.567Z,981.66
2018-12-09T05:42:09.515Z,981.78
2018-12-09T05:43:17.541Z,981.79
2018-12-09T05:44:17.209Z,981.74
2018-12-09T05:45:17.684Z,981.80
2018-12-09T05:46:17.711Z,981.77
2018-12-09T05:47:16.587Z,981.78
2018-12-09T05:48:17.315Z,981.90
2018-12-09T05:49:09.667Z,981.77
2018-12-09T05:50:16.681Z,981.77
2018-12-09T05:51:17.893Z,981.74
2018-12-09T05:52:17.444Z,981.81
2018-12-09T05:53:16.624Z,981.81
2018-12-09T05:54:18.424Z,981.87
2018-12-09T05:55:17.498Z,981.79
2018-12-09T05:56:16.660Z,981.84
2018-12-09T05:57:18.387Z,981.83
2018-12-09T05:58:17.434Z,981.87
2018-12-09T05:59:16.971Z,981.86
2018-12-09T06:00:09.481Z,981.82
2018-12-09T06:01:09.421Z,981.74
2018-12-09T06:02:09.241Z,981.76
2018-12-09T06:03:09.283Z,981.80
2018-12-09T06:04:09.220Z,981.86
2018-12-09T06:05:09.203Z,981.81
2018-12-09T06:06:09.285Z,981.84
2018-12-09T06:07:09.196Z,981.85
2018-12-09T06:08:09.196Z,981.81
2018-12-09T06:09:16.691Z,981.96
2018-12-09T06:10:17.017Z,981.87
2018-12-09T06:11:09.504Z,981.91
2018-12-09T06:12:17.428Z,981.91
2018-12-09T06:13:09.379Z,981.97
2018-12-09T06:14:09.139Z,981.95
2018-12-09T06:15:09.919Z,981.99
2018-12-09T06:16:09.149Z,981.95
2018-12-09T06:17:09.100Z,982.02
2018-12-09T06:18:09.211Z,982.15
2018-12-09T06:19:09.060Z,982.09
2018-12-09T06:20:09.935Z,982.05
2018-12-09T06:21:09.109Z,982.14
2018-12-09T06:22:09.073Z,982.14
2018-12-09T06:23:09.035Z,982.10
2018-12-09T06:24:09.037Z,982.18
2018-12-09T06:25:09.002Z,982.24
2018-12-09T06:26:08.974Z,982.21
2018-12-09T06:27:08.979Z,982.23
2018-12-09T06:28:08.984Z,982.25
2018-12-09T06:29:08.949Z,982.26
2018-12-09T06:30:16.961Z,982.25
2018-12-09T06:31:16.108Z,982.34
2018-12-09T06:32:17.615Z,982.33
2018-12-09T06:33:09.174Z,982.32
2018-12-09T06:34:17.691Z,982.42
2018-12-09T06:35:09.079Z,982.35
2018-12-09T06:36:18.621Z,982.32
2018-12-09T06:37:16.052Z,982.36
2018-12-09T06:38:17.640Z,982.33
2018-12-09T06:39:17.913Z,982.43
2018-12-09T06:40:09.123Z,982.42
2018-12-09T06:41:09.846Z,982.39
2018-12-09T06:42:08.979Z,982.52
2018-12-09T06:43:08.839Z,982.52
2018-12-09T06:44:08.833Z,982.43
2018-12-09T06:45:08.785Z,982.52
2018-12-09T06:46:08.766Z,982.59
2018-12-09T06:47:08.774Z,982.56
2018-12-09T06:48:08.757Z,982.66
2018-12-09T06:49:08.772Z,982.71
2018-12-09T06:50:08.735Z,982.72
2018-12-09T06:51:09.616Z,982.66
2018-12-09T06:52:15.895Z,982.74
2018-12-09T06:54:26.555Z,982.83
2018-12-09T06:55:33.664Z,982.80
2018-12-09T06:56:27.303Z,982.88
2018-12-09T06:57:26.335Z,982.96
2018-12-09T06:58:26.333Z,982.88
2018-12-09T06:59:26.341Z,982.90
2018-12-09T07:00:26.293Z,982.89
2018-12-09T07:01:26.297Z,982.87
2018-12-09T07:02:26.367Z,982.93
2018-12-09T07:03:26.276Z,982.94
2018-12-09T07:04:26.228Z,983.03
2018-12-09T07:05:26.204Z,982.97
2018-12-09T07:06:26.251Z,983.06
2018-12-09T07:07:27.609Z,983.08
2018-12-09T07:08:26.171Z,983.04
2018-12-09T07:09:26.157Z,983.08
2018-12-09T07:10:26.205Z,983.18
2018-12-09T07:11:27.100Z,983.17
2018-12-09T07:12:26.139Z,983.18
2018-12-09T07:13:26.715Z,983.21
2018-12-09T07:14:26.133Z,983.26
2018-12-09T07:15:26.091Z,983.32
2018-12-09T07:16:26.094Z,983.29
2018-12-09T07:17:26.205Z,983.30
2018-12-09T07:18:27.105Z,983.27
2018-12-09T07:19:27.727Z,983.29
2018-12-09T07:20:26.045Z,983.35
2018-12-09T07:21:26.012Z,983.48
2018-12-09T07:22:26.089Z,983.40
2018-12-09T07:23:26.656Z,983.42
2018-12-09T07:24:26.094Z,983.41
2018-12-09T07:25:26.760Z,983.39
2018-12-09T07:26:26.201Z,983.41
2018-12-09T07:27:26.022Z,983.50
2018-12-09T07:28:26.028Z,983.50
2018-12-09T07:29:25.941Z,983.50
2018-12-09T07:30:25.903Z,983.60
2018-12-09T07:31:25.951Z,983.59
2018-12-09T07:32:25.932Z,983.56
2018-12-09T07:33:25.916Z,983.64
2018-12-09T07:34:25.930Z,983.62
2018-12-09T07:35:25.925Z,983.66
2018-12-09T07:36:25.855Z,983.70
2018-12-09T07:37:26.005Z,983.68
2018-12-09T07:38:25.866Z,983.74
2018-12-09T07:39:25.818Z,983.76
2018-12-09T07:40:25.818Z,983.81
2018-12-09T07:41:25.832Z,983.77
2018-12-09T07:42:25.809Z,983.76
2018-12-09T07:43:25.847Z,983.83
2018-12-09T07:44:25.788Z,983.88
2018-12-09T07:45:25.750Z,983.85
2018-12-09T07:46:25.818Z,983.89
2018-12-09T07:47:25.757Z,983.91
2018-12-09T07:48:26.633Z,983.94
2018-12-09T07:49:25.716Z,983.96
2018-12-09T07:50:25.740Z,983.95
2018-12-09T07:51:25.709Z,983.98
2018-12-09T07:52:25.712Z,984.01
2018-12-09T07:53:25.654Z,984.04
2018-12-09T07:54:25.674Z,984.00
2018-12-09T07:55:25.679Z,984.06
2018-12-09T07:56:25.661Z,984.01
2018-12-09T07:57:25.711Z,984.01
2018-12-09T07:58:25.682Z,984.03
2018-12-09T07:59:26.077Z,984.03
2018-12-09T08:00:25.605Z,984.03
2018-12-09T08:01:26.172Z,984.07
2018-12-09T08:02:25.661Z,984.13
2018-12-09T08:03:25.566Z,984.08
2018-12-09T08:04:25.572Z,984.13
2018-12-09T08:05:25.620Z,984.20
2018-12-09T08:06:26.140Z,984.09
2018-12-09T08:07:27.182Z,984.21
2018-12-09T08:08:25.549Z,984.22
2018-12-09T08:09:25.534Z,984.24
2018-12-09T08:10:25.508Z,984.30
2018-12-09T08:11:25.578Z,984.31
2018-12-09T08:12:25.508Z,984.28
2018-12-09T08:13:32.603Z,984.30
2018-12-09T08:14:25.647Z,984.40
2018-12-09T08:15:25.749Z,984.33
2018-12-09T08:16:25.470Z,984.40
2018-12-09T08:17:25.693Z,984.45
2018-12-09T08:18:25.460Z,984.47
2018-12-09T08:19:25.471Z,984.37
2018-12-09T08:20:25.399Z,984.43
2018-12-09T08:21:25.387Z,984.56
2018-12-09T08:22:25.394Z,984.51
2018-12-09T08:23:25.352Z,984.54
2018-12-09T08:24:25.365Z,984.59
2018-12-09T08:25:25.352Z,984.56
2018-12-09T08:26:25.333Z,984.57
2018-12-09T08:27:25.341Z,984.54
2018-12-09T08:28:25.326Z,984.59
2018-12-09T08:29:25.276Z,984.58
2018-12-09T08:30:25.299Z,984.65
2018-12-09T08:31:25.267Z,984.63
2018-12-09T08:32:26.074Z,984.60
2018-12-09T08:33:25.317Z,984.67
2018-12-09T08:34:25.280Z,984.66
2018-12-09T08:35:26.260Z,984.68
2018-12-09T08:36:25.279Z,984.72
2018-12-09T08:37:25.237Z,984.72
2018-12-09T08:38:25.203Z,984.73
2018-12-09T08:39:25.199Z,984.70
2018-12-09T08:40:25.168Z,984.81
2018-12-09T08:41:25.686Z,984.68
2018-12-09T08:42:25.183Z,984.69
2018-12-09T08:43:25.230Z,984.72
2018-12-09T08:44:25.158Z,984.80
2018-12-09T08:45:25.169Z,984.83
2018-12-09T08:46:25.169Z,984.90
2018-12-09T08:47:25.686Z,984.87
2018-12-09T08:48:25.705Z,984.84
2018-12-09T08:49:25.109Z,984.86
2018-12-09T08:50:25.094Z,984.92
2018-12-09T08:51:25.064Z,984.92
2018-12-09T08:52:25.057Z,984.91
2018-12-09T08:53:25.253Z,985.02
2018-12-09T08:54:25.030Z,985.00
2018-12-09T08:55:25.064Z,985.01
2018-12-09T08:56:27.700Z,985.08
2018-12-09T08:57:26.910Z,985.03
2018-12-09T08:58:25.610Z,985.08
2018-12-09T08:59:25.063Z,985.05
2018-12-09T09:00:25.170Z,985.11
2018-12-09T09:01:36.954Z,985.14
2018-12-09T09:04:01.543Z,985.19
2018-12-09T09:05:03.485Z,985.20
2018-12-09T09:06:01.280Z,985.16
2018-12-09T09:07:01.972Z,985.18
2018-12-09T09:08:01.538Z,985.23
2018-12-09T09:11:02.794Z,985.25
2018-12-09T09:12:03.504Z,985.17
2018-12-09T09:13:08.190Z,985.22
2018-12-09T09:14:06.592Z,985.26
2018-12-09T09:16:22.580Z,985.29
2018-12-09T09:17:22.600Z,985.26
2018-12-09T09:18:22.210Z,985.33
2018-12-09T09:19:22.309Z,985.32
2018-12-09T09:20:22.384Z,985.34
2018-12-09T09:21:22.208Z,985.39
2018-12-09T09:22:22.312Z,985.36
2018-12-09T09:23:23.633Z,985.44
2018-12-09T09:24:22.129Z,985.39
2018-12-09T09:25:30.177Z,985.40
2018-12-09T09:26:30.143Z,985.45
2018-12-09T09:27:30.787Z,985.44
2018-12-09T09:28:22.207Z,985.47
2018-12-09T09:29:29.619Z,985.47
2018-12-09T09:30:34.754Z,985.43
2018-12-09T09:31:30.563Z,985.53
2018-12-09T09:32:31.271Z,985.49
2018-12-09T09:33:30.162Z,985.43
2018-12-09T09:34:30.838Z,985.46
2018-12-09T09:35:22.297Z,985.49
2018-12-09T09:37:38.620Z,985.55
2018-12-09T09:46:21.230Z,985.55
2018-12-09T09:47:30.476Z,985.61
2018-12-09T09:49:39.533Z,985.70
2018-12-09T09:53:34.380Z,985.71
2018-12-09T09:57:10.589Z,985.78
2018-12-09T10:00:05.041Z,985.79
2018-12-09T10:01:05.081Z,985.81
2018-12-09T10:02:05.822Z,985.83
2018-12-09T10:03:04.993Z,985.86
2018-12-09T10:04:04.994Z,985.77
2018-12-09T10:05:05.115Z,985.88
2018-12-09T10:06:04.916Z,985.94
2018-12-09T10:07:04.964Z,985.87
2018-12-09T10:08:04.932Z,985.89
2018-12-09T10:09:04.870Z,985.86
2018-12-09T10:10:05.845Z,985.90
2018-12-09T10:11:06.910Z,985.90
2018-12-09T10:12:07.432Z,985.87
2018-12-09T10:13:05.057Z,985.89
2018-12-09T10:14:07.947Z,985.86
2018-12-09T10:17:09.610Z,985.89
2018-12-09T10:20:12.113Z,985.96
2018-12-09T10:24:41.018Z,986.03
2018-12-09T10:25:40.873Z,985.95
2018-12-09T10:26:41.401Z,985.96
2018-12-09T10:27:40.737Z,985.93
2018-12-09T10:28:40.470Z,985.96
2018-12-09T10:29:40.648Z,985.94
2018-12-09T10:30:47.348Z,986.01
2018-12-09T10:31:42.307Z,985.98
2018-12-09T10:32:41.255Z,985.99
2018-12-09T10:33:40.103Z,985.96
2018-12-09T10:34:40.746Z,985.96
2018-12-09T10:35:40.436Z,985.99
2018-12-09T10:36:40.349Z,985.99
2018-12-09T10:37:40.566Z,985.97
2018-12-09T10:38:40.268Z,985.99
2018-12-09T10:39:40.964Z,986.01
2018-12-09T10:40:40.222Z,986.03
2018-12-09T10:41:39.982Z,985.99
2018-12-09T10:42:40.060Z,986.06
2018-12-09T10:43:43.698Z,986.00
2018-12-09T10:44:40.057Z,985.98
2018-12-09T10:45:40.084Z,986.00
2018-12-09T10:50:04.688Z,986.02
2018-12-09T10:52:22.462Z,986.05
2018-12-09T10:53:22.837Z,985.95
2018-12-09T10:54:23.985Z,986.11
2018-12-09T10:55:27.051Z,986.05
2018-12-09T10:56:22.174Z,986.07
2018-12-09T10:57:22.159Z,986.06
2018-12-09T10:58:22.171Z,986.15
2018-12-09T10:59:23.517Z,986.14
2018-12-09T11:00:22.709Z,986.21
2018-12-09T11:01:22.344Z,986.18
2018-12-09T11:02:22.095Z,986.14
2018-12-09T11:03:22.596Z,986.21
2018-12-09T11:04:24.491Z,986.14
2018-12-09T11:05:22.590Z,986.19
2018-12-09T11:06:23.663Z,986.19
2018-12-09T11:08:28.371Z,986.14
2018-12-09T11:09:28.580Z,986.16
2018-12-09T11:10:28.230Z,986.17
2018-12-09T11:11:29.300Z,986.15
2018-12-09T11:12:29.228Z,986.18
2018-12-09T11:13:29.075Z,986.19
2018-12-09T11:14:28.320Z,986.19
2018-12-09T11:15:28.973Z,986.12
2018-12-09T11:16:27.891Z,986.21
2018-12-09T11:17:29.180Z,986.13
2018-12-09T11:18:27.922Z,986.18
2018-12-09T11:19:29.167Z,986.24
2018-12-09T11:20:29.897Z,986.26
2018-12-09T11:21:30.989Z,986.25
2018-12-09T11:22:27.999Z,986.18
2018-12-09T11:23:29.513Z,986.20
2018-12-09T11:26:11.809Z,986.29
2018-12-09T11:27:11.838Z,986.31
2018-12-09T11:28:11.498Z,986.29
2018-12-09T11:35:17.037Z,986.28
2018-12-09T11:36:18.680Z,986.24
2018-12-09T11:43:11.535Z,986.20
2018-12-09T11:44:14.792Z,986.19
2018-12-09T11:51:25.465Z,986.22
2018-12-09T11:54:22.910Z,986.22
2018-12-09T12:38:11.672Z,986.53
2018-12-09T12:39:16.672Z,986.56
2018-12-09T12:43:55.773Z,986.57
2018-12-09T12:51:14.047Z,986.59
2018-12-09T12:53:34.776Z,986.57
2018-12-09T12:54:34.327Z,986.56
2018-12-09T12:55:34.224Z,986.61
2018-12-09T12:56:34.329Z,986.60
2018-12-09T12:57:35.289Z,986.51
2018-12-09T12:58:34.060Z,986.63
2018-12-09T12:59:33.902Z,986.63
2018-12-09T13:00:33.792Z,986.66
2018-12-09T13:01:33.849Z,986.64
2018-12-09T13:02:33.809Z,986.65
2018-12-09T13:03:43.024Z,986.64
2018-12-09T13:05:52.644Z,986.69
2018-12-09T13:07:01.541Z,986.72
2018-12-09T13:08:01.686Z,986.70
2018-12-09T13:08:52.808Z,986.74
2018-12-09T13:09:52.712Z,986.66
2018-12-09T13:11:00.535Z,986.74
2018-12-09T13:14:15.732Z,986.71
2018-12-09T13:15:16.685Z,986.80
2018-12-09T13:16:15.862Z,986.77
2018-12-09T13:17:15.701Z,986.84
2018-12-09T13:18:15.642Z,986.80
2018-12-09T13:19:15.484Z,986.84
2018-12-09T13:20:16.354Z,986.87
2018-12-09T13:21:15.446Z,986.79
2018-12-09T13:22:15.512Z,986.85
2018-12-09T13:23:15.620Z,986.86
2018-12-09T13:24:15.504Z,986.82
2018-12-09T13:25:23.954Z,986.76
2018-12-09T13:26:24.998Z,986.84
2018-12-09T13:28:33.347Z,986.96
2018-12-09T13:30:44.734Z,986.96
2018-12-09T13:31:44.706Z,987.01
2018-12-09T13:32:44.336Z,987.04
2018-12-09T13:33:44.270Z,986.99
2018-12-09T13:34:44.958Z,987.07
2018-12-09T13:35:53.801Z,987.05
2018-12-09T13:36:55.216Z,987.12
2018-12-09T13:40:11.593Z,987.12
2018-12-09T13:43:51.954Z,987.20
2018-12-09T13:44:52.305Z,987.24
2018-12-09T13:45:52.222Z,987.23
2018-12-09T13:46:51.911Z,987.24
2018-12-09T13:48:01.064Z,987.28
2018-12-09T13:48:52.750Z,987.27
2018-12-09T13:50:00.890Z,987.28
2018-12-09T13:50:52.419Z,987.34
2018-12-09T13:51:52.953Z,987.34
2018-12-09T13:52:51.998Z,987.29
2018-12-09T13:53:52.997Z,987.26
2018-12-09T13:54:52.009Z,987.34
2018-12-09T13:55:51.761Z,987.41
2018-12-09T13:56:51.945Z,987.39
2018-12-09T13:57:52.354Z,987.36
2018-12-09T13:58:51.767Z,987.42
2018-12-09T14:00:02.777Z,987.39
2018-12-09T14:00:52.337Z,987.37
2018-12-09T14:01:51.809Z,987.39
2018-12-09T14:03:13.360Z,987.44
2018-12-09T14:03:52.344Z,987.40
2018-12-09T14:06:04.834Z,987.47
2018-12-09T14:07:05.019Z,987.43
2018-12-09T14:08:04.747Z,987.48
2018-12-09T14:09:04.441Z,987.48
2018-12-09T14:10:05.074Z,987.42
2018-12-09T14:11:04.264Z,987.44
2018-12-09T14:12:04.423Z,987.45
2018-12-09T14:13:04.263Z,987.50
2018-12-09T14:14:05.158Z,987.43
2018-12-09T14:15:09.875Z,987.51
2018-12-09T14:16:05.223Z,987.55
2018-12-09T14:18:23.526Z,987.53
2018-12-09T14:19:26.120Z,987.57
2018-12-09T14:20:24.217Z,987.52
2018-12-09T14:21:30.679Z,987.56
2018-12-09T14:22:23.095Z,987.63
2018-12-09T14:23:23.793Z,987.65
2018-12-09T14:24:23.694Z,987.55
2018-12-09T14:25:22.703Z,987.59
2018-12-09T14:26:22.600Z,987.57
2018-12-09T14:27:23.354Z,987.67
2018-12-09T14:28:22.678Z,987.52
2018-12-09T14:29:22.723Z,987.58
2018-12-09T14:30:22.749Z,987.60
2018-12-09T14:31:22.572Z,987.56
2018-12-09T14:32:22.524Z,987.56
2018-12-09T14:33:22.555Z,987.61
2018-12-09T14:34:23.127Z,987.67
2018-12-09T14:35:25.068Z,987.63
2018-12-09T14:36:22.707Z,987.64
2018-12-09T14:37:22.493Z,987.72
2018-12-09T14:38:24.118Z,987.68
2018-12-09T14:39:23.105Z,987.73